東京/横田 の空港の天気 - METARとTAF

横田飛行場 ( RJTY / OKO ) - 東京都福生市
飛行場実況気象(Metar)
観測時間10/23 22:02 JST (10/23 13:02 UTC)
風向・風速東北東 4m/s
視程10km以上
天気現象
なし
気温14℃
湿度59%
気圧1014hPa
METARRJTY 231302Z AUTO 06008KT 10SM CLR 14/06 A2994 RMK AO2 SLP140 FZRANO $
過去の天気等 Google飛行場航空写真 Wunderground天気予報

過去48時間のMETAR

飛行場予報(TAF)
発表時間: 10/23 22:00 JST (10/23 13:00 UTC)
予報対象時間: 23日22時 JST ~ 25日4時 JST
風向・風速北東 6m/s
視程10km以上
なし
24日3時 JST ~ 24日4時 JST に徐々に
風向・風速不定 3m/s
視程10km以上
全天の4割程度の雲 雲底高度 5,490m
24日20時 JST ~ 24日21時 JST に徐々に
風向・風速北北西 3m/s
視程10km以上
全天の4割程度の雲 雲底高度 460m
全天の8割程度の雲 雲底高度 3,960m
TAF RJTY 231300Z 2313/2419 05012KT 9999 SKC QNH2989INS
BECMG 2318/2319 VRB06KT 9999 SCT180 QNH3010INS
BECMG 2411/2412 34006KT 9999 SCT015 BKN130 QNH3015INS TX19/2313Z TN10/2321Z LAST NO AMDS AFT 2313 NEXT 2321
日本の空港のMETAR・TAFへのリンク

RJTT 東京国際空港
RJAA 新東京国際空港
RJBB 関西国際空港
RJOO 大阪空港
RJGG 中部国際空港
RJCC 新千歳空港
RJFF 福岡空港
ROAH 那覇空港


RJEC 旭川空港
RJCH 函館空港
RJCK 釧路空港
RJCM 女満別空港
RJCB 帯広空港
RJSA 青森空港
RJSS 仙台空港
RJSK 秋田空港
RJSF 福島空港
RJAH 茨城空港
RJSN 新潟空港
RJNT 富山空港
RJNK 小松飛行場
RJNS 静岡空港
RJOH 美保飛行場
RJOC 出雲空港
RJOB 岡山空港
RJOA 広島空港
RJOI 岩国飛行場
RJOT 高松空港
RJOM 松山空港
RJOK 高知空港
RJFR 北九州空港
RJFT 熊本空港
RJFU 長崎空港
RJFS 佐賀空港
RJFO 大分空港
RJFM 宮崎空港
RJFK 鹿児島空港
ROIG 石垣島空港
RJTY 横田飛行場
ROTM 普天間飛行場
RODN 嘉手納飛行場